createdAt,value
2023-03-02T00:01:10.802Z,15.80
2023-03-02T00:06:14.216Z,17.13
2023-03-02T00:11:18.758Z,15.13
2023-03-02T00:16:22.036Z,14.47
2023-03-02T00:21:25.739Z,13.18
2023-03-02T00:26:30.706Z,15.63
2023-03-02T00:31:34.706Z,12.75
2023-03-02T00:36:38.016Z,14.68
2023-03-02T00:41:42.539Z,14.82
2023-03-02T00:46:45.886Z,15.17
2023-03-02T00:51:49.021Z,16.80
2023-03-02T00:56:53.555Z,11.32
2023-03-02T01:01:59.022Z,15.43
2023-03-02T01:07:04.288Z,15.55
2023-03-02T01:12:11.312Z,14.00
2023-03-02T01:17:15.409Z,11.65
2023-03-02T01:22:18.963Z,14.63
2023-03-02T01:27:23.537Z,16.40
2023-03-02T01:32:26.790Z,14.33
2023-03-02T01:37:30.044Z,16.20
2023-03-02T01:42:39.958Z,15.07
2023-03-02T01:47:43.127Z,14.45
2023-03-02T01:52:46.357Z,13.57
2023-03-02T01:57:53.674Z,14.02
2023-03-02T02:03:09.006Z,12.82
2023-03-02T02:08:12.528Z,12.10
2023-03-02T02:13:17.034Z,14.77
2023-03-02T02:18:20.311Z,14.17
2023-03-02T02:23:28.949Z,11.60
2023-03-02T02:28:37.318Z,14.43
2023-03-02T02:33:43.719Z,15.30
2023-03-02T02:38:48.675Z,13.30
2023-03-02T02:43:53.441Z,14.45
2023-03-02T02:48:56.642Z,13.63
2023-03-02T02:54:01.540Z,11.57
2023-03-02T02:59:15.081Z,16.20
2023-03-02T03:04:21.678Z,12.90
2023-03-02T03:09:25.799Z,13.05
2023-03-02T03:14:35.492Z,15.10
2023-03-02T03:19:39.304Z,11.40
2023-03-02T03:24:44.362Z,16.05
2023-03-02T03:29:49.305Z,13.57
2023-03-02T03:34:52.479Z,12.70
2023-03-02T03:39:55.780Z,13.80
2023-03-02T03:45:01.356Z,15.77
2023-03-02T03:50:05.010Z,11.10
2023-03-02T03:55:08.964Z,10.75
2023-03-02T04:00:18.406Z,10.68
2023-03-02T04:05:21.660Z,9.98
2023-03-02T04:10:24.775Z,12.52
2023-03-02T04:15:29.415Z,12.98
2023-03-02T04:20:33.270Z,11.97
2023-03-02T04:25:36.401Z,14.98
2023-03-02T04:30:41.018Z,12.73
2023-03-02T04:35:44.230Z,11.73
2023-03-02T04:40:47.443Z,10.00
2023-03-02T04:45:51.983Z,9.93
2023-03-02T04:50:55.113Z,11.60
2023-03-02T04:55:58.395Z,13.75
2023-03-02T05:01:03.690Z,11.80
2023-03-02T05:06:07.248Z,10.95
2023-03-02T05:11:12.141Z,11.35
2023-03-02T05:16:16.729Z,11.60
2023-03-02T05:21:20.336Z,10.83
2023-03-02T05:26:23.700Z,13.80
2023-03-02T05:31:31.940Z,16.30
2023-03-02T05:36:35.592Z,8.65
2023-03-02T05:41:39.364Z,12.23
2023-03-02T05:46:44.036Z,10.07
2023-03-02T05:51:47.347Z,10.57
2023-03-02T05:56:50.598Z,9.95
2023-03-02T06:01:59.129Z,10.20
2023-03-02T06:07:02.516Z,11.25
2023-03-02T06:12:06.178Z,11.48
2023-03-02T06:17:11.227Z,9.23
2023-03-02T06:22:14.463Z,10.65
2023-03-02T06:27:18.148Z,9.35
2023-03-02T06:32:22.887Z,8.65
2023-03-02T06:37:26.179Z,8.63
2023-03-02T06:42:29.951Z,9.90
2023-03-02T06:47:34.935Z,8.07
2023-03-02T06:52:38.197Z,7.22
2023-03-02T06:57:41.533Z,9.07
2023-03-02T07:02:46.300Z,10.13
2023-03-02T07:07:49.526Z,8.53
2023-03-02T07:12:53.864Z,8.38
2023-03-02T07:17:58.548Z,8.68
2023-03-02T07:23:01.838Z,8.37
2023-03-02T07:28:05.534Z,10.68
2023-03-02T07:33:10.193Z,7.95
2023-03-02T07:38:13.417Z,7.17
2023-03-02T07:43:17.213Z,8.90
2023-03-02T07:48:23.394Z,8.68
2023-03-02T07:53:26.753Z,6.35
2023-03-02T07:58:30.089Z,6.32
2023-03-02T08:03:34.747Z,6.32
2023-03-02T08:08:38.502Z,6.30
2023-03-02T08:13:42.571Z,7.13
2023-03-02T08:18:47.190Z,6.10
2023-03-02T08:23:50.930Z,4.75
2023-03-02T08:28:54.244Z,4.53
2023-03-02T08:34:00.126Z,5.00
2023-03-02T08:39:03.398Z,4.70
2023-03-02T08:44:07.792Z,5.50
2023-03-02T08:49:12.460Z,6.40
2023-03-02T08:54:16.470Z,4.95
2023-03-02T08:59:20.400Z,6.13
2023-03-02T09:04:25.159Z,5.00
2023-03-02T09:14:31.540Z,5.18
2023-03-02T09:19:44.331Z,4.28
2023-03-02T09:24:47.994Z,4.60
2023-03-02T09:29:51.332Z,5.07
2023-03-02T09:34:56.036Z,4.93
2023-03-02T09:39:59.313Z,6.80
2023-03-02T09:45:16.492Z,9.52
2023-03-02T09:50:41.359Z,4.60
2023-03-02T09:55:47.459Z,3.77
2023-03-02T10:00:52.303Z,3.70
2023-03-02T10:05:57.552Z,3.35
2023-03-02T10:11:08.138Z,2.90
2023-03-02T10:16:20.680Z,5.00
2023-03-02T10:21:31.196Z,3.10
2023-03-02T10:26:40.642Z,3.70
2023-03-02T10:31:46.185Z,4.60
2023-03-02T10:36:50.748Z,4.65
2023-03-02T10:46:59.475Z,4.03
2023-03-02T10:52:06.374Z,3.83
2023-03-02T10:57:29.796Z,3.60
2023-03-02T11:02:36.333Z,2.80
2023-03-02T11:07:41.048Z,4.43
2023-03-02T11:12:47.898Z,5.15
2023-03-02T11:17:58.163Z,3.50
2023-03-02T11:23:15.392Z,3.30
2023-03-02T11:28:35.397Z,2.88
2023-03-02T11:33:44.404Z,2.22
2023-03-02T11:38:53.660Z,3.35
2023-03-02T11:44:00.279Z,2.70
2023-03-02T11:49:08.122Z,4.18
2023-03-02T11:54:30.759Z,2.58
2023-03-02T11:59:35.694Z,4.88
2023-03-02T12:04:40.306Z,3.17
2023-03-02T12:09:44.940Z,3.25
2023-03-02T12:14:48.099Z,2.67
2023-03-02T12:19:53.665Z,2.42
2023-03-02T12:25:08.645Z,3.05
2023-03-02T12:30:26.388Z,2.53
2023-03-02T12:35:32.945Z,2.58
2023-03-02T12:40:54.650Z,1.88
2023-03-02T12:46:36.905Z,1.98
2023-03-02T12:51:53.069Z,2.25
2023-03-02T12:57:09.163Z,2.05
2023-03-02T13:02:17.980Z,2.13
2023-03-02T13:07:24.486Z,1.50
2023-03-02T13:12:30.499Z,2.75
2023-03-02T13:17:34.358Z,1.95
2023-03-02T13:22:37.674Z,1.48
2023-03-02T13:27:53.909Z,3.33
2023-03-02T13:33:02.921Z,1.85
2023-03-02T13:38:14.956Z,2.50
2023-03-02T13:43:25.210Z,3.28
2023-03-02T13:48:29.282Z,3.80
2023-03-02T13:53:38.151Z,2.25
2023-03-02T13:58:42.766Z,3.35
2023-03-02T14:03:46.005Z,3.20
2023-03-02T14:08:50.238Z,3.77
2023-03-02T14:13:56.107Z,2.53
2023-03-02T14:18:59.272Z,3.13
2023-03-02T14:24:02.494Z,4.50
2023-03-02T14:29:16.385Z,4.28
2023-03-02T14:34:19.886Z,3.03
2023-03-02T14:39:26.549Z,3.07
2023-03-02T14:44:31.156Z,4.05
2023-03-02T14:49:34.337Z,3.20
2023-03-02T14:54:42.130Z,2.63
2023-03-02T14:59:46.703Z,3.53
2023-03-02T15:04:53.733Z,3.47
2023-03-02T15:09:59.040Z,3.60
2023-03-02T15:15:03.585Z,3.47
2023-03-02T15:20:08.006Z,3.72
2023-03-02T15:25:11.615Z,2.97
2023-03-02T15:30:16.489Z,3.57
2023-03-02T15:35:20.000Z,3.40
2023-03-02T15:40:23.136Z,3.90
2023-03-02T15:45:28.959Z,3.65
2023-03-02T15:50:32.088Z,4.13
2023-03-02T15:55:35.305Z,3.63
2023-03-02T16:00:40.059Z,4.40
2023-03-02T16:05:43.493Z,3.70
2023-03-02T16:10:57.373Z,4.18
2023-03-02T16:16:05.192Z,3.83
2023-03-02T16:21:13.313Z,5.90
2023-03-02T16:26:18.954Z,4.00
2023-03-02T16:31:26.565Z,3.90
2023-03-02T16:36:29.740Z,4.72
2023-03-02T16:41:33.016Z,3.63
2023-03-02T16:46:39.498Z,4.22
2023-03-02T16:51:43.853Z,3.65
2023-03-02T16:56:47.686Z,5.65
2023-03-02T17:01:52.417Z,4.87
2023-03-02T17:07:00.912Z,5.38
2023-03-02T17:12:04.872Z,6.05
2023-03-02T17:17:09.825Z,6.20
2023-03-02T17:22:12.967Z,5.53
2023-03-02T17:27:24.965Z,40.80
2023-03-02T17:32:30.493Z,30.77
2023-03-02T17:37:33.813Z,20.45
2023-03-02T17:42:39.071Z,14.70
2023-03-02T17:47:43.799Z,14.40
2023-03-02T17:52:47.218Z,23.25
2023-03-02T17:57:50.339Z,24.50
2023-03-02T18:02:55.029Z,15.73
2023-03-02T18:07:58.257Z,14.32
2023-03-02T18:13:01.460Z,17.00
2023-03-02T18:18:06.522Z,12.73
2023-03-02T18:28:12.571Z,9.95
2023-03-02T18:33:17.214Z,9.98
2023-03-02T18:38:20.463Z,10.00
2023-03-02T18:43:23.629Z,13.38
2023-03-02T18:48:28.291Z,15.35
2023-03-02T18:53:31.470Z,13.63
2023-03-02T18:58:34.731Z,16.60
2023-03-02T19:03:40.173Z,15.48
2023-03-02T19:08:43.395Z,11.88
2023-03-02T19:13:46.566Z,15.57
2023-03-02T19:18:51.331Z,18.67
2023-03-02T19:23:54.566Z,13.00
2023-03-02T19:28:57.752Z,16.25
2023-03-02T19:34:02.396Z,15.40
2023-03-02T19:39:05.614Z,15.30
2023-03-02T19:44:08.754Z,18.55
2023-03-02T19:49:13.300Z,17.48
2023-03-02T19:54:16.428Z,22.53
2023-03-02T19:59:19.668Z,19.75
2023-03-02T20:04:24.212Z,18.73
2023-03-02T20:09:27.972Z,22.73
2023-03-02T20:14:34.067Z,21.13
2023-03-02T20:19:38.899Z,22.20
2023-03-02T20:24:42.752Z,19.73
2023-03-02T20:29:46.008Z,28.80
2023-03-02T20:34:50.588Z,24.85
2023-03-02T20:39:54.378Z,18.87
2023-03-02T20:44:57.594Z,20.70
2023-03-02T20:50:02.802Z,19.38
2023-03-02T20:55:07.025Z,19.55
2023-03-02T21:00:15.297Z,23.63
2023-03-02T21:05:21.586Z,28.38
2023-03-02T21:10:28.085Z,25.55
2023-03-02T21:15:31.434Z,28.88
2023-03-02T21:20:37.183Z,27.40
2023-03-02T21:25:42.274Z,29.27
2023-03-02T21:35:53.041Z,32.53
2023-03-02T21:40:57.201Z,37.77
2023-03-02T21:46:01.434Z,39.20
2023-03-02T21:51:07.232Z,35.70
2023-03-02T21:56:12.009Z,30.08
2023-03-02T22:01:15.581Z,36.47
2023-03-02T22:06:22.021Z,29.60
2023-03-02T22:11:26.484Z,31.70
2023-03-02T22:16:34.296Z,30.77
2023-03-02T22:21:39.842Z,30.70
2023-03-02T22:26:45.296Z,28.63
2023-03-02T22:32:00.129Z,28.23
2023-03-02T22:37:13.242Z,30.33
2023-03-02T22:42:18.016Z,26.83
2023-03-02T22:47:22.238Z,33.90
2023-03-02T22:52:33.850Z,28.00
2023-03-02T22:57:37.812Z,25.83
2023-03-02T23:02:44.963Z,28.85
2023-03-02T23:07:49.776Z,29.75
2023-03-02T23:12:52.959Z,29.25
2023-03-02T23:17:58.978Z,29.77
2023-03-02T23:23:03.555Z,28.80
2023-03-02T23:28:06.959Z,27.60
2023-03-02T23:33:10.348Z,29.42
2023-03-02T23:38:14.952Z,28.75
2023-03-02T23:43:18.066Z,28.80
2023-03-02T23:48:21.454Z,24.25
2023-03-02T23:53:27.157Z,30.85
2023-03-02T23:58:30.364Z,26.67
